• Join FlightAware (Why Join?)
  • Login
  • US Flag 
11:50AM EDT


 

Airport Tracker/Info


-or-


 

Live Flight TrackerFlight Track Log ✈ N43812 ✈ 24-Oct-2013 ✈ 1B1 - KCDW

Flight Track Log - Related Links

Times and Time Zones

All times are in EDT time to prevent confusion due to time zone crossing. See the N43812 flight status page for this flight to view local times or setup timezone preferences in your user account.

Time Position Orientation Groundspeed Altitude Reporting Facility
EDT Latitude Longitude Course Direction KTS MPH feet Rate Location/Type
03:47PM 42.2936 -73.7219 198° South 88 101 2,500  Level Boston Center
03:48PM 42.2633 -73.7350 198° South 102 117 3,000 300 Climbing Boston Center
03:49PM 42.2458 -73.7406 193° South 110 127 3,100 60 Climbing Boston Center
03:49PM 42.2311 -73.7472 199° South 127 146 3,100  Level Boston Center
03:50PM 42.2119 -73.7542 195° South 125 144 3,100  Level Boston Center
03:50PM 42.1989 -73.7594 197° South 125 144 3,100 -120 Level Boston Center
03:51PM 42.1778 -73.7686 198° South 121 139 3,000 -120 Descending Boston Center
03:51PM 42.1664 -73.7719 192° South 119 137 3,000 60 Level Boston Center
03:52PM 42.1469 -73.7800 197° South 116 133 3,100 60 Climbing Boston Center
03:52PM 42.1361 -73.7847 198° South 116 133 3,100 -120 Level Boston Center
03:53PM 42.1147 -73.7936 197° South 120 138 3,000  Descending Boston Center
03:53PM 42.1039 -73.7969 193° South 119 137 3,100 60 Climbing Boston Center
03:54PM 42.0828 -73.8053 196° South 112 129 3,100 -60 Level Boston Center
03:55PM 42.0497 -73.8192 197° South 121 139 3,000 -60 Descending Boston Center
03:56PM 42.0183 -73.8311 196° South 119 137 3,000  Level Boston Center
03:57PM 41.9872 -73.8447 198° South 118 136 3,000  Level Boston Center
03:58PM 41.9522 -73.8581 196° South 122 140 3,100  Climbing Boston Center
03:59PM 41.9203 -73.8708 197° South 121 139 3,100 -60 Level Boston Center
04:00PM 41.8900 -73.8833 197° South 113 130 3,000  Descending Boston Center
04:01PM 41.8569 -73.8978 198° South 116 133 3,100  Climbing Boston Center
04:02PM 41.8253 -73.9089 195° South 118 136 3,000  Descending Boston Center
04:03PM 41.7933 -73.9214 196° South 119 137 3,100  Climbing Boston Center
04:04PM 41.7594 -73.9353 197° South 117 135 3,000  Descending Boston Center
04:05PM 41.7308 -73.9469 197° South 110 127 3,100  Climbing Boston Center
04:06PM 41.7006 -73.9589 196° South 112 129 3,100  Level Boston Center
04:07PM 41.6683 -73.9722 197° South 114 131 3,100  Level Boston Center
04:08PM 41.6367 -73.9842 196° South 117 135 3,100  Level Boston Center
04:09PM 41.6069 -73.9956 196° South 113 130 3,100  Level Boston Center
04:10PM 41.5747 -74.0031 190° South 116 133 3,100  Level Boston Center
04:11PM 41.5394 -74.0114 190° South 119 137 3,100 -60 Level Boston Center
04:12PM 41.5086 -74.0175 188° South 112 129 3,000 -60 Descending Boston Center
04:13PM 41.4767 -74.0258 191° South 115 132 3,000  Level Boston Center
04:14PM 41.4447 -74.0353 192° South 117 135 3,000  Level Boston Center
04:15PM 41.4097 -74.0442 191° South 117 135 3,100  Climbing Boston Center
04:16PM 41.3753 -74.0506 188° South 124 143 3,000 -60 Descending Boston Center
04:17PM 41.3394 -74.0547 185° South 127 146 3,000  Level Boston Center
04:18PM 41.3053 -74.0631 190° South 126 145 3,100  Climbing Boston Center
04:20PM 41.2717 -74.0808 202° Southwest 121 139 3,000  Descending Boston Center
04:21PM 41.2392 -74.0983 202° Southwest 125 144 3,200  Climbing Boston Center
04:22PM 41.2000 -74.1167 199° South 128 147 3,100 -180 Descending New York TRACON
04:23PM 41.1667 -74.1333 201° Southwest 131 151 2,900 -300 Descending New York TRACON
04:24PM 41.1333 -74.1500 201° Southwest 130 150 2,600 -180 Descending New York TRACON
04:25PM 41.1000 -74.1667 201° Southwest 126 145 2,600  Level New York TRACON
04:26PM 41.0667 -74.1833 201° Southwest 113 130 2,600  Level New York TRACON
04:27PM 41.0333 -74.2000 201° Southwest 115 132 2,700  Climbing New York TRACON
04:28PM 41.0167 -74.2167 217° Southwest 115 132 2,600 -300 Descending New York TRACON
04:29PM 40.9833 -74.2333 201° Southwest 124 143 2,100 -480 Descending New York TRACON
04:30PM 40.9500 -74.2333 180° South 125 144 1,700 -360 Descending New York TRACON
04:31PM 40.9167 -74.2333 180° South 110 127 1,400 -360 Descending New York TRACON
04:32PM 40.8833 -74.2333 180° South 96 110 1,000 -420 Descending New York TRACON